createdAt,value
2019-03-12T07:44:00.830Z,21.73
2019-03-12T07:47:45.632Z,25.17
2019-03-12T07:51:23.738Z,20.80
2019-03-12T07:55:11.999Z,16.00
2019-03-12T07:59:21.613Z,18.57
2019-03-12T08:02:51.850Z,21.23
2019-03-12T08:06:25.566Z,20.37
2019-03-12T08:10:05.578Z,21.63
2019-03-12T08:13:59.442Z,22.07
2019-03-12T08:17:43.122Z,19.57
2019-03-12T08:21:22.283Z,21.90
2019-03-12T08:24:59.566Z,21.73
2019-03-12T08:28:28.122Z,26.10
2019-03-12T08:32:08.796Z,21.17
2019-03-12T08:36:06.041Z,22.40
2019-03-12T08:39:41.730Z,21.60
2019-03-12T08:43:13.294Z,20.83
2019-03-12T08:46:55.098Z,21.83
2019-03-12T08:50:34.746Z,16.40
2019-03-12T08:54:10.076Z,16.03
2019-03-12T08:57:46.833Z,17.30
2019-03-12T09:01:23.946Z,17.77
2019-03-12T09:05:05.005Z,17.30
2019-03-12T09:08:38.125Z,19.53
2019-03-12T09:12:22.946Z,16.17
2019-03-12T09:16:07.001Z,16.97
2019-03-12T09:19:36.747Z,20.37
2019-03-12T09:23:06.139Z,17.20
2019-03-12T09:26:50.678Z,18.90
2019-03-12T09:30:20.632Z,13.87
2019-03-12T09:34:06.007Z,13.17
2019-03-12T09:37:37.058Z,12.07
2019-03-12T09:41:20.488Z,10.27
2019-03-12T09:45:00.698Z,11.37
2019-03-12T09:48:37.320Z,9.97
2019-03-12T09:52:13.775Z,9.70
2019-03-12T09:56:10.942Z,12.93
2019-03-12T09:59:40.367Z,10.63
2019-03-12T10:03:15.094Z,9.30
2019-03-12T10:06:55.139Z,11.23
2019-03-12T10:10:36.731Z,14.37
2019-03-12T10:14:21.386Z,13.03
2019-03-12T10:17:54.006Z,9.70
2019-03-12T10:21:27.874Z,11.20
2019-03-12T10:24:59.345Z,9.40
2019-03-12T10:28:41.137Z,14.83
2019-03-12T10:32:14.755Z,6.27
2019-03-12T10:35:56.317Z,14.87
2019-03-12T10:40:10.094Z,11.50
2019-03-12T10:43:37.726Z,8.60
2019-03-12T10:47:14.146Z,14.47
2019-03-12T10:50:36.540Z,13.40
2019-03-12T10:53:58.921Z,9.83
2019-03-12T10:57:21.794Z,10.00
2019-03-12T11:00:44.779Z,10.50
2019-03-12T11:04:07.447Z,7.37
2019-03-12T11:07:29.967Z,10.00
2019-03-12T11:10:52.630Z,9.60
2019-03-12T11:14:15.411Z,4.83
2019-03-12T11:17:48.903Z,8.93
2019-03-12T11:21:01.603Z,6.37
2019-03-12T11:24:24.080Z,9.70
2019-03-12T11:27:46.497Z,7.80
2019-03-12T11:31:09.254Z,6.70
2019-03-12T11:34:31.714Z,6.60
2019-03-12T11:37:54.147Z,6.10
2019-03-12T11:41:17.082Z,5.53
2019-03-12T11:44:39.481Z,13.93
2019-03-12T11:48:02.508Z,4.67
2019-03-12T11:51:25.346Z,4.90
2019-03-12T11:54:47.980Z,6.23
2019-03-12T11:58:10.812Z,4.97
2019-03-12T12:01:33.458Z,2.97
2019-03-12T12:04:55.624Z,3.47
2019-03-12T12:08:18.126Z,6.03
2019-03-12T12:11:40.631Z,4.13
2019-03-12T12:15:03.248Z,4.20
2019-03-12T12:18:26.229Z,4.57
2019-03-12T12:21:49.219Z,8.13
2019-03-12T12:25:12.950Z,3.43
2019-03-12T12:28:35.406Z,4.03
2019-03-12T12:31:58.412Z,6.67
2019-03-12T12:35:21.151Z,4.53
2019-03-12T12:38:44.023Z,7.70
2019-03-12T12:42:06.529Z,4.23
2019-03-12T12:45:29.534Z,6.80
2019-03-12T12:48:53.385Z,6.47
2019-03-12T12:52:16.054Z,6.07
2019-03-12T12:55:38.661Z,5.23
2019-03-12T12:59:01.209Z,3.83
2019-03-12T13:02:23.290Z,5.83
2019-03-12T13:05:45.707Z,8.83
2019-03-12T13:09:08.383Z,5.70
2019-03-12T13:12:30.768Z,6.27
2019-03-12T13:15:53.497Z,7.20
2019-03-12T13:19:15.614Z,6.47
2019-03-12T13:22:38.213Z,7.30
2019-03-12T13:26:00.643Z,9.33
2019-03-12T13:29:22.790Z,4.20
2019-03-12T13:32:44.956Z,7.43
2019-03-12T13:36:13.745Z,6.57
2019-03-12T13:39:36.351Z,5.90
2019-03-12T13:42:59.014Z,4.10
2019-03-12T13:46:21.436Z,7.37
2019-03-12T13:49:44.086Z,6.60
2019-03-12T13:53:06.459Z,6.33
2019-03-12T13:56:29.401Z,4.10
2019-03-12T13:59:52.122Z,5.93
2019-03-12T14:03:14.552Z,7.13
2019-03-12T14:06:37.741Z,5.40
2019-03-12T14:10:00.655Z,8.20
2019-03-12T14:13:23.794Z,4.23
2019-03-12T14:16:46.354Z,7.90
2019-03-12T14:20:36.379Z,7.00
2019-03-12T14:24:01.499Z,6.93
2019-03-12T14:27:24.218Z,6.07
2019-03-12T14:30:46.837Z,8.57
2019-03-12T14:34:09.444Z,12.20
2019-03-12T14:37:31.761Z,7.30
2019-03-12T14:40:54.665Z,7.10
2019-03-12T14:44:17.358Z,6.70
2019-03-12T14:47:39.778Z,10.53
2019-03-12T14:51:02.595Z,8.53
2019-03-12T14:54:25.141Z,6.67
2019-03-12T14:57:47.477Z,10.37
2019-03-12T15:01:10.155Z,10.97
2019-03-12T15:04:32.822Z,11.10
2019-03-12T15:07:55.698Z,11.13
2019-03-12T15:11:17.945Z,8.53
2019-03-12T15:14:40.368Z,10.53
2019-03-12T15:18:02.673Z,9.67
2019-03-12T15:21:25.119Z,10.17
2019-03-12T15:24:47.609Z,8.20
2019-03-12T15:28:10.045Z,11.93
2019-03-12T15:31:32.510Z,9.57
2019-03-12T15:34:54.602Z,17.60
2019-03-12T15:38:17.503Z,13.20
2019-03-12T15:41:39.678Z,10.80
2019-03-12T15:45:02.382Z,9.87
2019-03-12T15:48:25.187Z,10.67
2019-03-12T15:51:47.678Z,9.80
2019-03-12T15:55:10.356Z,10.20
2019-03-12T15:58:32.838Z,12.57
2019-03-12T16:01:55.528Z,10.23
2019-03-12T16:05:17.917Z,11.97
2019-03-12T16:08:40.594Z,10.93
2019-03-12T16:12:02.965Z,9.83
2019-03-12T16:15:25.507Z,8.63
2019-03-12T16:18:48.489Z,7.90
2019-03-12T16:22:11.300Z,11.53
2019-03-12T16:25:33.784Z,11.33
2019-03-12T16:28:56.714Z,6.83
2019-03-12T16:32:19.383Z,9.57
2019-03-12T16:35:42.349Z,8.83
2019-03-12T16:39:06.688Z,5.97
2019-03-12T16:42:35.133Z,8.97
2019-03-12T16:45:53.523Z,9.63
2019-03-12T16:49:16.202Z,9.87
2019-03-12T16:52:38.734Z,7.30
2019-03-12T16:56:01.576Z,9.07
2019-03-12T16:59:24.437Z,8.73
2019-03-12T17:02:47.203Z,7.97
2019-03-12T17:06:09.458Z,10.63
2019-03-12T17:09:31.916Z,7.33
2019-03-12T17:12:54.388Z,8.13
2019-03-12T17:16:17.141Z,7.97
2019-03-12T17:19:39.465Z,6.50
2019-03-12T17:23:02.199Z,8.27
2019-03-12T17:26:24.302Z,7.43
2019-03-12T17:29:46.710Z,5.30
2019-03-12T17:33:09.138Z,12.03
2019-03-12T17:36:31.485Z,8.23
2019-03-12T17:39:53.758Z,7.87
2019-03-12T17:43:16.273Z,10.53
2019-03-12T17:46:38.384Z,11.40
2019-03-12T17:50:04.482Z,12.40
2019-03-12T17:53:26.988Z,10.17
2019-03-12T17:56:49.386Z,8.47
2019-03-12T18:00:16.938Z,12.73
2019-03-12T18:03:39.335Z,12.20
2019-03-12T18:07:01.698Z,10.90
2019-03-12T18:10:24.902Z,13.23
2019-03-12T18:13:47.486Z,8.27
2019-03-12T18:17:09.849Z,9.00
2019-03-12T18:20:32.294Z,6.43
2019-03-12T18:23:54.750Z,7.17
2019-03-12T18:27:16.867Z,9.37
2019-03-12T18:30:39.115Z,6.37
2019-03-12T18:34:01.737Z,8.07
2019-03-12T18:37:24.172Z,8.17
2019-03-12T18:40:46.913Z,9.33
2019-03-12T18:44:09.350Z,7.87
2019-03-12T18:47:31.919Z,8.47
2019-03-12T18:50:54.488Z,7.73
2019-03-12T18:54:16.918Z,6.67
2019-03-12T18:57:39.607Z,9.20
2019-03-12T19:01:05.090Z,10.03
2019-03-12T19:04:27.767Z,5.30
2019-03-12T19:07:50.059Z,7.17
2019-03-12T19:11:12.291Z,6.73
2019-03-12T19:14:34.744Z,7.23
2019-03-12T19:17:57.369Z,8.50
2019-03-12T19:21:20.121Z,10.47
2019-03-12T19:24:42.885Z,7.77
2019-03-12T19:28:05.787Z,6.13
2019-03-12T19:31:42.387Z,8.03
2019-03-12T19:35:05.093Z,7.77
2019-03-12T19:38:27.741Z,8.70
2019-03-12T19:41:50.208Z,8.70
2019-03-12T19:45:12.477Z,8.33
2019-03-12T19:48:34.871Z,12.10
2019-03-12T19:51:57.092Z,9.33
2019-03-12T19:55:21.812Z,10.27
2019-03-12T19:58:44.509Z,7.97
2019-03-12T20:02:15.977Z,7.43
2019-03-12T20:05:32.904Z,10.70
2019-03-12T20:08:55.093Z,10.47
2019-03-12T20:12:41.136Z,7.07
2019-03-12T20:17:08.631Z,8.37
2019-03-12T20:21:01.425Z,9.23
2019-03-12T20:25:18.122Z,7.80
2019-03-12T20:29:23.479Z,6.67
2019-03-12T20:33:22.155Z,4.47
2019-03-12T20:37:30.943Z,7.70
2019-03-12T20:41:43.432Z,4.77
2019-03-12T20:45:34.107Z,6.80
2019-03-12T20:49:32.695Z,5.90
2019-03-12T20:53:41.890Z,6.60
2019-03-12T20:57:40.215Z,7.30
2019-03-12T21:01:28.019Z,6.00
2019-03-12T21:05:30.533Z,5.87
2019-03-12T21:09:31.174Z,5.87
2019-03-12T21:13:30.123Z,4.53
2019-03-12T21:17:17.205Z,5.80
2019-03-12T21:21:16.218Z,6.17
2019-03-12T21:25:13.246Z,5.17
2019-03-12T21:28:55.334Z,7.70
2019-03-12T21:32:18.837Z,5.83
2019-03-12T21:35:41.401Z,5.50
2019-03-12T21:39:07.517Z,6.60
2019-03-12T21:42:30.301Z,5.97
2019-03-12T21:45:52.815Z,7.43
2019-03-12T21:49:15.382Z,5.47
2019-03-12T21:52:37.551Z,5.60
2019-03-12T21:56:00.162Z,4.23
2019-03-12T21:59:23.057Z,5.57
2019-03-12T22:02:45.645Z,4.23
2019-03-12T22:06:08.196Z,3.90
2019-03-12T22:09:31.229Z,6.17
2019-03-12T22:12:53.922Z,7.47
2019-03-12T22:16:16.334Z,7.00
2019-03-12T22:19:39.027Z,5.83
2019-03-12T22:23:06.012Z,5.53
2019-03-12T22:26:28.298Z,4.67
2019-03-12T22:29:50.922Z,7.20
2019-03-12T22:33:13.194Z,5.70
2019-03-12T22:36:35.971Z,5.33
2019-03-12T22:39:58.170Z,9.93
2019-03-12T22:43:20.809Z,5.67
2019-03-12T22:46:43.497Z,5.83
2019-03-12T22:50:06.470Z,5.87
2019-03-12T22:53:29.079Z,4.57
2019-03-12T22:56:51.446Z,5.33
2019-03-12T23:00:14.479Z,5.17
2019-03-12T23:03:36.905Z,6.57
2019-03-12T23:06:59.240Z,5.30
2019-03-12T23:10:21.796Z,4.17
2019-03-12T23:13:44.258Z,4.77
2019-03-12T23:17:06.701Z,4.67
2019-03-12T23:20:29.887Z,3.57
2019-03-12T23:23:52.325Z,4.37
2019-03-12T23:27:14.806Z,3.80
2019-03-12T23:30:37.448Z,4.47
2019-03-12T23:33:59.845Z,3.97
2019-03-12T23:37:22.374Z,5.40
2019-03-12T23:40:44.853Z,3.97
2019-03-12T23:44:07.334Z,3.43
2019-03-12T23:47:30.470Z,4.83
2019-03-12T23:50:53.056Z,3.10
2019-03-12T23:54:15.538Z,4.47
2019-03-12T23:57:38.092Z,2.90
